createdAt,value
2022-10-22T00:09:36.166Z,93.6
2022-10-22T00:29:36.148Z,94.2
2022-10-22T00:49:36.092Z,94.3
2022-10-22T01:09:36.062Z,95
2022-10-22T01:29:36.045Z,94.8
2022-10-22T01:49:36.001Z,94.6
2022-10-22T02:09:35.959Z,94.4
2022-10-22T02:29:35.955Z,94.8
2022-10-22T02:49:35.970Z,94.6
2022-10-22T03:09:35.876Z,94.3
2022-10-22T03:29:35.834Z,94.3
2022-10-22T03:49:35.822Z,93.6
2022-10-22T04:09:35.764Z,94.1
2022-10-22T04:29:35.799Z,94.7
2022-10-22T05:09:35.671Z,94.8
2022-10-22T05:29:35.662Z,94.7
2022-10-22T05:49:35.597Z,95.2
2022-10-22T06:29:35.556Z,95.8
2022-10-22T06:49:35.513Z,95.6
2022-10-22T07:09:35.476Z,94.6
2022-10-22T07:49:35.423Z,92
2022-10-22T08:29:35.349Z,82
2022-10-22T08:49:36.107Z,80.4
2022-10-22T09:09:35.280Z,79.3
2022-10-22T09:29:35.241Z,78.6
2022-10-22T09:49:35.213Z,77.8
2022-10-22T10:09:35.182Z,76.4
2022-10-22T10:29:35.138Z,77
2022-10-22T10:49:35.109Z,75.7
2022-10-22T11:09:35.088Z,74
2022-10-22T11:29:35.047Z,71.6
2022-10-22T11:49:35.022Z,72.9
2022-10-22T12:09:34.984Z,72.8
2022-10-22T12:29:34.956Z,70.5
2022-10-22T12:49:34.918Z,71.5
2022-10-22T13:09:36.412Z,71.2
2022-10-22T13:29:34.842Z,70.8
2022-10-22T13:49:34.798Z,72.4
2022-10-22T14:09:34.769Z,72.3
2022-10-22T14:29:34.740Z,70.7
2022-10-22T14:49:34.701Z,69.3
2022-10-22T15:09:34.666Z,70.8
2022-10-22T15:29:34.656Z,72.6
2022-10-22T15:49:34.596Z,75.1
2022-10-22T16:09:34.591Z,77.7
2022-10-22T16:29:34.528Z,81.4
2022-10-22T16:49:34.495Z,85.9
2022-10-22T17:09:34.452Z,88.7
2022-10-22T17:29:34.454Z,89.9
2022-10-22T18:09:34.374Z,92.7
2022-10-22T18:29:34.333Z,93.7
2022-10-22T18:49:34.296Z,95
2022-10-22T19:09:34.277Z,94
2022-10-22T19:29:34.250Z,92.8
2022-10-22T20:09:34.202Z,92.3
2022-10-22T20:29:34.157Z,94
2022-10-22T20:49:34.129Z,93.6
2022-10-22T21:09:34.136Z,94.7
2022-10-22T21:29:34.070Z,93.8
2022-10-22T22:09:34.001Z,89.9
2022-10-22T22:29:33.963Z,89.9
2022-10-22T22:49:33.942Z,90.2
2022-10-22T23:09:33.925Z,90.6
2022-10-22T23:49:33.835Z,90.1
